Data for 07/07/2008

Time Sea-Level Adjusted Pressure Absolute Pressure Temperature Relative Humidity Dew Point   
(mb) (inHg) (mb) (inHg) (C) (F) (%) (C) (F)
00:05 1017 30.03 847 25.01 15.2 59.4 60 7.7 45.8
00:10 1017 30.03 847 25.01 15.3 59.5 59 7.4 45.3
00:15 1018 30.06 847 25.01 15.2 59.3 60 7.4 45.3
00:20 1017 30.03 847 25.01 15.2 59.3 58 7.1 44.8
00:25 1017 30.03 847 25.01 15.1 59.1 59 7.3 45.1
00:30 1018 30.06 847 25.01 14.9 58.8 60 7.3 45.1
00:35 1018 30.06 847 25.01 14.8 58.7 61 7.4 45.3
00:40 1018 30.06 847 25.01 14.9 58.9 62 7.8 46.1
00:45 1018 30.06 847 25.01 14.8 58.6 62 7.6 45.7
00:50 1018 30.06 847 25.01 14.4 57.8 63 7.5 45.5
00:55 1018 30.06 847 25.01 14.1 57.4 64 7.4 45.4
01:00 1018 30.06 847 25.01 14 57.2 63 7.2 44.9
01:05 1018 30.06 847 25.01 14.1 57.3 62 7.1 44.7
01:10 1018 30.06 847 25.01 14.2 57.5 63 7.3 45.1
01:15 1018 30.06 847 25.01 14 57.3 63 7.2 45
01:20 1018 30.06 847 25.01 14 57.2 62 7 44.6
01:25 1018 30.06 847 25.01 14.1 57.4 62 7.1 44.7
01:30 1018 30.06 847 25.01 14.3 57.7 61 7 44.6
01:35 1018 30.06 847 25.01 14.4 57.9 61 7.1 44.8
01:40 1018 30.06 847 25.01 14.5 58.1 60 6.8 44.2
01:45 1018 30.06 847 25.01 14.6 58.3 60 7 44.5
01:50 1018 30.06 847 25.01 14.6 58.2 60 6.9 44.4
01:55 1018 30.06 847 25.01 14.6 58.2 60 6.9 44.5
02:00 1018 30.06 847 25.01 14.7 58.5 57 6.5 43.6
02:05 1018 30.06 847 25.01 14.9 58.8 59 7 44.7
02:10 1018 30.06 847 25.01 14.5 58.1 61 7.2 44.9
02:15 1018 30.06 848 25.04 14.1 57.5 61 6.9 44.4
02:20 1018 30.06 848 25.04 14.3 57.8 59 6.6 43.8
02:25 1018 30.06 848 25.04 14.8 58.6 57 6.5 43.7
02:30 1018 30.06 848 25.04 14.9 58.7 59 7 44.7
02:35 1018 30.06 848 25.04 14.4 57.8 63 7.4 45.4
02:40 1018 30.06 848 25.04 13.6 56.5 65 7.1 44.8
02:45 1018 30.06 848 25.04 13.4 56.2 65 6.9 44.5
02:50 1019 30.09 848 25.04 13.5 56.3 65 7.1 44.7
02:55 1019 30.09 848 25.04 13.6 56.5 62 6.6 43.9
03:00 1019 30.09 848 25.04 14 57.2 60 6.5 43.7
03:05 1019 30.09 848 25.04 14.3 57.7 59 6.6 43.8
03:10 1019 30.09 848 25.04 14.2 57.5 64 7.5 45.4
03:15 1019 30.09 848 25.04 13.5 56.3 66 7.3 45.1
03:20 1019 30.09 848 25.04 13.2 55.7 66 7 44.6
03:25 1019 30.09 848 25.04 13.2 55.7 65 6.8 44.3
03:30 1019 30.09 848 25.04 13.4 56.2 63 6.7 44
03:35 1019 30.09 848 25.04 13.5 56.4 65 7 44.7
03:40 1019 30.09 848 25.04 13.2 55.8 66 7 44.6
03:45 1019 30.09 848 25.04 12.8 55 67 6.9 44.5
03:50 1019 30.09 848 25.04 12.6 54.6 68 7 44.6
03:55 1019 30.09 848 25.04 12.4 54.3 68 6.7 44.1
04:00 1019 30.09 848 25.04 12.6 54.7 66 6.6 43.8
04:05 1019 30.09 848 25.04 13 55.5 65 6.6 43.8
04:10 1019 30.09 848 25.04 13.2 55.7 64 6.6 43.9
04:15 1019 30.09 848 25.04 13.2 55.7 65 6.7 44.1
04:20 1019 30.09 848 25.04 13.1 55.5 65 6.6 43.9
04:25 1019 30.09 848 25.04 12.9 55.3 65 6.6 43.9
04:30 1019 30.09 848 25.04 12.8 55.1 66 6.7 44.1
04:35 1019 30.09 848 25.04 12.6 54.7 66 6.5 43.8
04:40 1019 30.09 848 25.04 12.6 54.7 67 6.6 43.9
04:45 1019 30.09 848 25.04 12.5 54.5 67 6.7 44
04:50 1019 30.09 848 25.04 12.4 54.3 67 6.5 43.6
04:55 1019 30.09 848 25.04 12.3 54.2 67 6.5 43.8
05:00 1019 30.09 848 25.04 12.4 54.2 67 6.5 43.7
05:05 1019 30.09 849 25.07 12.3 54.2 67 6.4 43.5
05:10 1019 30.09 849 25.07 12.3 54.1 68 6.6 44
05:15 1019 30.09 849 25.07 12.2 53.9 68 6.4 43.6
05:20 1019 30.09 849 25.07 12.3 54.1 68 6.6 43.8
05:25 1019 30.09 849 25.07 12.1 53.8 69 6.6 43.9
05:30 1019 30.09 849 25.07 11.9 53.4 69 6.4 43.5
05:35 1020 30.12 849 25.07 12 53.6 69 6.5 43.7
05:40 1020 30.12 849 25.07 12 53.5 69 6.6 43.8
05:45 1020 30.12 849 25.07 11.7 53 71 6.6 43.9
05:50 1020 30.12 849 25.07 11.4 52.5 72 6.6 43.9
05:55 1020 30.12 849 25.07 11.3 52.3 72 6.4 43.5
06:00 1020 30.12 849 25.07 11.3 52.4 72 6.5 43.7
06:05 1020 30.12 849 25.07 11.3 52.3 73 6.5 43.8
06:10 1020 30.12 849 25.07 11.3 52.3 72 6.4 43.5
06:15 1020 30.12 849 25.07 11.6 52.9 70 6.3 43.3
06:20 1020 30.12 849 25.07 11.9 53.4 68 6.3 43.3
06:25 1020 30.12 849 25.07 12 53.6 69 6.5 43.7
06:30 1020 30.12 849 25.07 11.8 53.3 70 6.6 43.8
06:35 1020 30.12 849 25.07 11.8 53.3 69 6.4 43.6
06:40 1020 30.12 849 25.07 12 53.7 69 6.6 43.9
06:45 1020 30.12 849 25.07 12.1 53.9 68 6.5 43.6
06:50 1020 30.12 849 25.07 12.4 54.4 67 6.5 43.7
06:55 1020 30.12 849 25.07 12.7 54.8 67 6.7 44
07:00 1020 30.12 849 25.07 12.7 54.8 69 7.1 44.9
07:05 1020 30.12 849 25.07 12.4 54.3 69 6.9 44.5
07:10 1020 30.12 849 25.07 12.6 54.6 68 6.8 44.2
07:15 1020 30.12 849 25.07 12.7 54.9 69 7.1 44.8
07:20 1020 30.12 849 25.07 12.8 55.1 68 7.2 44.9
07:25 1020 30.12 849 25.07 13.1 55.6 67 7.1 44.8
07:30 1020 30.12 849 25.07 13.6 56.5 65 7.2 45
07:35 1020 30.12 849 25.07 13.9 56.9 64 7.2 44.9
07:40 1020 30.12 849 25.07 14.8 58.7 60 7.1 44.8
07:45 1020 30.12 849 25.07 15.6 60 57 7.2 44.9
07:50 1020 30.12 850 25.1 16.2 61.1 56 7.4 45.4
07:55 1020 30.12 850 25.1 16.7 62.1 55 7.6 45.8
08:00 1020 30.12 850 25.1 16.8 62.2 54 7.6 45.7
08:05 1020 30.12 850 25.1 16.8 62.3 54 7.5 45.5
08:10 1020 30.12 850 25.1 17.3 63.1 53 7.7 45.8
08:15 1020 30.12 850 25.1 17.5 63.5 52 7.6 45.7
08:20 1020 30.12 850 25.1 18.1 64.6 51 7.8 46.1
08:25 1020 30.12 850 25.1 18.5 65.3 49 7.9 46.1
08:30 1020 30.12 850 25.1 18.6 65.4 46 6.8 44.3
08:35 1020 30.12 850 25.1 19.1 66.4 42 6.2 43.1
08:40 1021 30.15 850 25.1 19.2 66.5 42 5.9 42.7
08:45 1021 30.15 850 25.1 19.1 66.3 43 6.3 43.4
08:50 1020 30.12 850 25.1 18.8 65.9 42 5.8 42.5
08:55 1021 30.15 850 25.1 19 66.1 41 5.4 41.8
09:00 1021 30.15 850 25.1 19 66.2 40 5.3 41.5
09:05 1021 30.15 850 25.1 19.4 66.9 39 5.3 41.5
09:10 1021 30.15 850 25.1 19.5 67.1 40 5.6 42
09:15 1021 30.15 850 25.1 19 66.2 42 5.8 42.4
09:20 1021 30.15 850 25.1 19.7 67.4 38 5.1 41.1
09:25 1021 30.15 850 25.1 20.1 68.1 37 5 41
09:30 1021 30.15 850 25.1 20.1 68.2 37 5.3 41.5
09:35 1021 30.15 850 25.1 20.2 68.4 37 5.4 41.7
09:40 1021 30.15 850 25.1 20.2 68.4 38 5.6 42.1
09:45 1021 30.15 850 25.1 20.6 69.1 36 5.2 41.4
09:50 1021 30.15 850 25.1 20.8 69.4 35 5.1 41.1
09:55 1021 30.15 850 25.1 20.9 69.6 37 6 42.8
10:00 1021 30.15 850 25.1 20.7 69.2 36 5.3 41.5
10:05 1021 30.15 850 25.1 20.8 69.5 38 6.1 42.9
10:10 1020 30.12 850 25.1 21.1 69.9 39 6.7 44
10:15 1020 30.12 850 25.1 21.2 70.1 35 5.2 41.4
10:20 1020 30.12 850 25.1 20.6 69.1 37 5.6 42
10:25 1020 30.12 850 25.1 20.3 68.5 38 5.6 42.1
10:30 1020 30.12 850 25.1 20.5 68.9 33 3.9 39.1
10:35 1020 30.12 850 25.1 20.6 69.1 34 4.3 39.7
10:40 1020 30.12 850 25.1 21.1 69.9 34 4.6 40.4
10:45 1020 30.12 850 25.1 21.7 71.1 33 4.8 40.7
10:50 1021 30.15 850 25.1 21.1 70 34 4.9 40.9
10:55 1021 30.15 850 25.1 21 69.8 32 4.1 39.4
11:00 1021 30.15 850 25.1 21.4 70.5 32 4 39.3
11:05 1021 30.15 850 25.1 21.2 70.2 32 4 39.2
11:10 1021 30.15 850 25.1 21.5 70.6 32 4.1 39.4
11:15 1021 30.15 850 25.1 21.9 71.5 30 3.8 38.8
11:20 1021 30.15 850 25.1 22.3 72.2 29 3.6 38.6
11:25 1020 30.12 850 25.1 22.5 72.6 28 3.2 37.8
11:30 1021 30.15 850 25.1 23 73.4 28 3.8 38.9
11:35 1020 30.12 850 25.1 22.1 71.8 31 4.6 40.2
11:40 1020 30.12 850 25.1 21 69.8 31 3.6 38.5
11:45 1020 30.12 850 25.1 21.4 70.5 28 2.5 36.6
11:50 1020 30.12 850 25.1 22.3 72.1 29 3.6 38.5
11:55 1020 30.12 850 25.1 23.3 73.9 27 3.3 38
12:00 1020 30.12 850 25.1 23.5 74.4 27 3.6 38.5
12:05 1020 30.12 849 25.07 23.4 74.1 26 3.1 37.6
12:10 1020 30.12 849 25.07 23.6 74.4 25 2.9 37.2
12:15 1020 30.12 849 25.07 23.8 74.8 25 2.8 37.1
12:20 1020 30.12 849 25.07 23.6 74.6 26 3.4 38.1
12:25 1020 30.12 849 25.07 23.8 74.8 27 4 39.2
12:30 1020 30.12 849 25.07 23.4 74.1 28 4.1 39.5
12:35 1020 30.12 849 25.07 23.4 74 30 4.9 40.8
12:40 1020 30.12 849 25.07 24 75.3 27 4 39.2
12:45 1020 30.12 849 25.07 23.4 74.1 28 4 39.2
12:50 1020 30.12 849 25.07 23.9 74.9 26 3.5 38.2
12:55 1020 30.12 849 25.07 24.2 75.6 27 4.2 39.5
13:00 1020 30.12 849 25.07 24.2 75.6 26 3.8 38.9
13:05 1020 30.12 849 25.07 24.8 76.6 26 4.4 39.9
13:10 1020 30.12 849 25.07 24.5 76.1 25 3.6 38.4
13:15 1020 30.12 849 25.07 24.8 76.6 25 3.8 38.8
13:20 1020 30.12 849 25.07 24 75.1 25 3.1 37.6
13:25 1020 30.12 849 25.07 24.7 76.5 25 3.4 38.2
13:30 1020 30.12 849 25.07 24.7 76.5 24 3.3 37.9
13:35 1020 30.12 849 25.07 24 75.2 26 3.5 38.2
13:40 1020 30.12 849 25.07 24.1 75.4 26 3.9 39
13:45 1020 30.12 849 25.07 23.8 74.9 26 3.2 37.8
13:50 1020 30.12 849 25.07 23.6 74.6 25 2.8 37
13:55 1020 30.12 849 25.07 23.6 74.6 26 3.2 37.7
14:00 1020 30.12 849 25.07 24 75.2 25 3.3 37.9
14:05 1020 30.12 849 25.07 23.9 75.1 25 2.8 37.1
14:10 1020 30.12 849 25.07 23.7 74.7 26 3.4 38.2
14:15 1020 30.12 849 25.07 23.5 74.4 27 3.5 38.3
14:20 1020 30.12 849 25.07 23.7 74.6 25 2.7 36.9
14:25 1020 30.12 849 25.07 24.7 76.4 25 3.5 38.4
14:30 1020 30.12 849 25.07 25.1 77.1 25 3.7 38.6
14:35 1020 30.12 849 25.07 24.7 76.5 27 4.6 40.2
14:40 1020 30.12 849 25.07 24.2 75.5 25 3 37.4
14:45 1020 30.12 849 25.07 24 75.1 25 2.9 37.3
14:50 1020 30.12 849 25.07 24.8 76.7 24 3.2 37.8
14:55 1020 30.12 849 25.07 25.3 77.5 25 3.9 39
15:00 1019 30.09 849 25.07 25.5 77.9 24 3.6 38.4
15:05 1020 30.12 849 25.07 25.3 77.6 24 3.4 38.1
15:10 1019 30.09 849 25.07 25.8 78.4 23 3.7 38.6
15:15 1019 30.09 849 25.07 26 78.8 23 3.3 37.9
15:20 1019 30.09 849 25.07 24.7 76.4 23 2.3 36.2
15:25 1019 30.09 848 25.04 25.1 77.2 24 3.5 38.3
15:30 1019 30.09 848 25.04 25.6 78.1 22 2.5 36.5
15:35 1019 30.09 848 25.04 25.7 78.3 22 2.8 37.1
15:40 1019 30.09 848 25.04 25.7 78.3 22 2.9 37.1
15:45 1019 30.09 848 25.04 24.6 76.3 24 2.8 37
15:50 1019 30.09 848 25.04 25 76.9 22 2.2 35.9
15:55 1019 30.09 848 25.04 25 77.1 23 2.4 36.4
16:00 1019 30.09 848 25.04 24.4 75.8 23 2 35.6
16:05 1019 30.09 848 25.04 24.5 76.1 22 1.5 34.7
16:10 1019 30.09 848 25.04 25.1 77.1 23 2.5 36.4
16:15 1019 30.09 848 25.04 24.8 76.6 23 2.4 36.4
16:20 1019 30.09 848 25.04 25.5 77.9 20 1.3 34.3
16:25 1019 30.09 848 25.04 26.3 79.3 20 2 35.6
16:30 1019 30.09 848 25.04 26.1 79.1 21 2.7 36.8
16:35 1019 30.09 848 25.04 26.5 79.6 19 1.5 34.7
16:40 1018 30.06 848 25.04 26.8 80.2 20 2.2 36
16:45 1018 30.06 848 25.04 26.8 80.2 20 2.2 35.9
16:50 1018 30.06 848 25.04 26.5 79.6 21 2.9 37.3
16:55 1018 30.06 848 25.04 26.3 79.3 21 2.5 36.6
17:00 1018 30.06 847 25.01 26.1 79 22 2.9 37.2
17:05 1018 30.06 847 25.01 26.2 79.1 21 2.4 36.4
17:10 1018 30.06 847 25.01 26 78.8 20 1.6 34.9
17:15 1018 30.06 847 25.01 26.2 79.2 21 2.6 36.7
17:20 1018 30.06 847 25.01 25.6 78.1 22 2.8 37.1
17:25 1018 30.06 847 25.01 25.9 78.7 20 1.7 35.1
17:30 1018 30.06 847 25.01 26.2 79.1 21 2.2 35.9
17:35 1018 30.06 847 25.01 25.7 78.3 21 2 35.7
17:40 1018 30.06 847 25.01 25.5 77.9 21 2.2 35.9
17:45 1018 30.06 847 25.01 26.3 79.4 20 1.9 35.4
17:50 1018 30.06 847 25.01 26.9 80.5 20 2 35.6
17:55 1018 30.06 847 25.01 26.5 79.6 20 1.6 34.9
18:00 1018 30.06 847 25.01 26.4 79.4 19 1.4 34.6
18:05 1018 30.06 847 25.01 26.6 79.8 18 0.6 33.1
18:10 1018 30.06 847 25.01 27.2 80.9 19 1.9 35.4
18:15 1018 30.06 847 25.01 27.2 80.9 18 1.2 34.2
18:20 1018 30.06 847 25.01 27.1 80.9 18 1.1 34
18:25 1018 30.06 847 25.01 27.2 80.9 19 1.8 35.3
18:30 1018 30.06 847 25.01 27.5 81.4 19 2 35.6
18:35 1018 30.06 847 25.01 27.4 81.2 18 1.4 34.5
18:40 1018 30.06 847 25.01 27.2 81 18 1.4 34.5
18:45 1018 30.06 847 25.01 27.1 80.8 18 1.1 34
18:50 1018 30.06 847 25.01 27.2 80.9 19 1.8 35.2
18:55 1018 30.06 847 25.01 27 80.6 19 1.6 34.9
19:00 1018 30.06 847 25.01 26.9 80.3 19 1.8 35.3
19:05 1017 30.03 847 25.01 27 80.6 19 1.4 34.5
19:10 1017 30.03 847 25.01 27.1 80.8 18 1.2 34.2
19:15 1017 30.03 847 25.01 27.1 80.8 18 1.4 34.5
19:20 1017 30.03 847 25.01 26.9 80.4 19 2 35.5
19:25 1017 30.03 847 25.01 25.9 78.6 20 1.4 34.4
19:30 1017 30.03 847 25.01 25.7 78.2 23 3.5 38.2
19:35 1017 30.03 847 25.01 25.1 77.2 24 3.6 38.5
19:40 1017 30.03 847 25.01 24.9 76.7 26 4 39.3
19:45 1017 30.03 847 25.01 24.9 76.9 24 3.2 37.8
19:50 1017 30.03 847 25.01 24.8 76.6 25 3.5 38.2
19:55 1017 30.03 847 25.01 24.6 76.3 25 3.5 38.4
20:00 1018 30.06 847 25.01 24.5 76.2 24 2.7 36.9
20:05 1018 30.06 847 25.01 24.6 76.2 24 2.6 36.7
20:10 1018 30.06 847 25.01 24.7 76.4 26 4.4 39.9
20:15 1018 30.06 847 25.01 24.6 76.2 26 4 39.3
20:20 1018 30.06 847 25.01 24.4 75.8 26 4 39.2
20:25 1018 30.06 847 25.01 24.2 75.5 29 5.3 41.6
20:30 1018 30.06 847 25.01 24.2 75.5 27 4.1 39.4
20:35 1018 30.06 847 25.01 24.1 75.4 29 5 41.1
20:40 1018 30.06 847 25.01 23.9 75 30 5.3 41.6
20:45 1018 30.06 847 25.01 23.7 74.7 29 5.1 41.2
20:50 1018 30.06 847 25.01 23.7 74.6 31 5.5 42
20:55 1018 30.06 847 25.01 23.3 74 36 7.7 45.8
21:00 1018 30.06 847 25.01 22.3 72.1 38 7.6 45.7
21:05 1018 30.06 847 25.01 21.6 70.9 39 7.1 44.8
21:10 1018 30.06 847 25.01 21.3 70.3 39 7.1 44.7
21:15 1018 30.06 847 25.01 20.9 69.5 41 7.1 44.8
21:20 1018 30.06 847 25.01 20.7 69.3 41 7.3 45.1
21:25 1018 30.06 847 25.01 20.5 68.8 40 6.6 43.9
21:30 1018 30.06 848 25.04 20.3 68.6 42 7.2 44.9
21:35 1018 30.06 848 25.04 20.2 68.3 43 7.3 45.1
21:40 1019 30.09 848 25.04 19.5 67.1 44 7.2 44.9
21:45 1019 30.09 848 25.04 19.3 66.7 45 7 44.7
21:50 1019 30.09 848 25.04 19.3 66.7 45 7.2 45
21:55 1019 30.09 848 25.04 18.7 65.6 52 8.6 47.5
22:00 1019 30.09 848 25.04 17.8 64.1 54 8.4 47.2
22:05 1019 30.09 848 25.04 17.4 63.4 55 8.4 47.1
22:10 1019 30.09 848 25.04 17.5 63.4 50 6.9 44.5
22:15 1019 30.09 848 25.04 17.5 63.5 49 6.9 44.4
22:20 1019 30.09 848 25.04 17.8 64 47 6.4 43.6
22:25 1019 30.09 849 25.07 17.8 64.1 47 6.5 43.7
22:30 1019 30.09 849 25.07 17.7 63.9 47 6.4 43.6
22:35 1019 30.09 849 25.07 17.6 63.6 47 6.3 43.3
22:40 1020 30.12 849 25.07 17.5 63.5 50 7 44.7
22:45 1020 30.12 849 25.07 17.2 63 50 6.8 44.3
22:50 1020 30.12 849 25.07 17.3 63.1 49 6.4 43.6
22:55 1020 30.12 849 25.07 17.1 62.8 49 6.5 43.7
23:00 1020 30.12 849 25.07 16.7 62 51 6.6 43.9
23:05 1020 30.12 849 25.07 16.4 61.5 49 5.9 42.6
23:10 1020 30.12 849 25.07 16.4 61.5 50 6.2 43.1
23:15 1020 30.12 849 25.07 16.4 61.6 48 5.5 42
23:20 1020 30.12 849 25.07 16.6 61.8 48 5.5 41.8
23:25 1020 30.12 849 25.07 16.7 62.1 47 5.6 42.1
23:30 1020 30.12 849 25.07 16.6 61.9 48 5.5 41.9
23:35 1020 30.12 849 25.07 16.5 61.6 49 5.7 42.3
23:40 1020 30.12 849 25.07 16.4 61.5 47 5.1 41.3
23:45 1020 30.12 849 25.07 16.4 61.5 46 4.9 40.9
23:50 1020 30.12 849 25.07 16.4 61.4 46 4.7 40.5
23:55 1020 30.12 849 25.07 16.3 61.4 46 4.8 40.6
24:00 1020 30.12 849 25.07 16.2 61.2 46 4.6 40.2